createdAt,value
2017-11-19T00:01:27.842Z,90.90
2017-11-19T00:03:56.177Z,91.60
2017-11-19T00:06:23.743Z,91.60
2017-11-19T00:08:51.330Z,91.30
2017-11-19T00:11:20.152Z,90.80
2017-11-19T00:13:47.833Z,91.20
2017-11-19T00:16:15.520Z,91.50
2017-11-19T00:18:45.389Z,91.10
2017-11-19T00:21:13.028Z,91.20
2017-11-19T00:23:41.435Z,91.30
2017-11-19T00:26:09.986Z,91.40
2017-11-19T00:28:42.889Z,91.60
2017-11-19T00:31:22.463Z,91.60
2017-11-19T00:33:53.945Z,91.50
2017-11-19T00:36:23.341Z,91.80
2017-11-19T00:38:55.254Z,91.80
2017-11-19T00:41:23.705Z,91.80
2017-11-19T00:43:51.253Z,91.70
2017-11-19T00:46:19.662Z,92.00
2017-11-19T00:48:48.062Z,91.80
2017-11-19T00:51:15.652Z,91.90
2017-11-19T00:53:46.607Z,92.30
2017-11-19T00:56:21.534Z,92.30
2017-11-19T00:58:53.681Z,91.80
2017-11-19T01:01:21.742Z,91.90
2017-11-19T01:03:58.631Z,92.20
2017-11-19T01:06:27.517Z,91.70
2017-11-19T01:08:57.395Z,91.70
2017-11-19T01:11:27.243Z,91.70
2017-11-19T01:14:00.398Z,92.00
2017-11-19T01:16:35.093Z,92.00
2017-11-19T01:19:03.002Z,91.80
2017-11-19T01:21:36.144Z,92.30
2017-11-19T01:24:06.238Z,92.20
2017-11-19T01:26:36.001Z,92.30
2017-11-19T01:29:05.502Z,92.10
2017-11-19T01:31:38.532Z,92.00
2017-11-19T01:34:06.482Z,92.00
2017-11-19T01:36:36.523Z,91.80
2017-11-19T01:39:06.748Z,91.80
2017-11-19T01:41:44.181Z,91.80
2017-11-19T01:44:14.510Z,91.90
2017-11-19T01:46:42.220Z,91.80
2017-11-19T01:49:11.740Z,92.30
2017-11-19T01:51:41.167Z,92.20
2017-11-19T01:54:09.512Z,92.30
2017-11-19T01:56:39.885Z,92.30
2017-11-19T01:59:08.428Z,92.50
2017-11-19T02:01:53.776Z,92.60
2017-11-19T02:04:22.448Z,92.20
2017-11-19T02:06:53.374Z,92.40
2017-11-19T02:09:22.386Z,92.50
2017-11-19T02:11:51.014Z,92.60
2017-11-19T02:14:18.657Z,92.60
2017-11-19T02:16:51.579Z,92.40
2017-11-19T02:19:23.781Z,92.70
2017-11-19T02:21:54.446Z,92.70
2017-11-19T02:24:23.309Z,92.40
2017-11-19T02:27:00.167Z,92.20
2017-11-19T02:29:34.105Z,92.40
2017-11-19T02:32:02.861Z,92.30
2017-11-19T02:34:34.212Z,92.20
2017-11-19T02:37:01.818Z,92.40
2017-11-19T02:39:30.132Z,92.60
2017-11-19T02:41:59.281Z,92.60
2017-11-19T02:44:27.818Z,92.30
2017-11-19T02:46:57.593Z,92.30
2017-11-19T02:52:03.656Z,91.90
2017-11-19T02:54:33.487Z,92.40
2017-11-19T02:57:08.937Z,92.40
2017-11-19T02:59:42.111Z,92.20
2017-11-19T03:02:12.430Z,92.00
2017-11-19T03:04:40.254Z,92.00
2017-11-19T03:07:07.884Z,92.10
2017-11-19T03:09:35.820Z,92.10
2017-11-19T03:12:05.405Z,92.20
2017-11-19T03:14:34.372Z,92.00
2017-11-19T03:17:04.017Z,92.20
2017-11-19T03:19:33.858Z,92.40
2017-11-19T03:22:10.193Z,92.20
2017-11-19T03:24:39.667Z,92.20
2017-11-19T03:27:09.581Z,92.20
2017-11-19T03:29:38.101Z,92.30
2017-11-19T03:32:06.918Z,91.80
2017-11-19T03:34:35.933Z,92.10
2017-11-19T03:37:06.547Z,92.20
2017-11-19T03:39:41.217Z,92.20
2017-11-19T03:42:19.282Z,92.20
2017-11-19T03:47:30.478Z,92.00
2017-11-19T03:50:02.552Z,92.20
2017-11-19T03:52:34.786Z,92.30
2017-11-19T03:55:04.083Z,92.30
2017-11-19T03:57:32.811Z,92.20
2017-11-19T04:00:02.406Z,92.10
2017-11-19T04:02:29.997Z,92.20
2017-11-19T04:04:57.661Z,92.00
2017-11-19T04:07:26.216Z,92.20
2017-11-19T04:09:53.941Z,92.40
2017-11-19T04:12:21.621Z,92.10
2017-11-19T04:14:50.109Z,92.40
2017-11-19T04:17:17.749Z,92.80
2017-11-19T04:19:45.305Z,92.50
2017-11-19T04:22:12.921Z,92.00
2017-11-19T04:24:40.764Z,92.20
2017-11-19T04:27:08.597Z,92.30
2017-11-19T04:29:36.868Z,92.60
2017-11-19T04:32:04.487Z,92.70
2017-11-19T04:34:32.066Z,92.80
2017-11-19T04:37:01.009Z,92.40
2017-11-19T04:39:29.209Z,92.40
2017-11-19T04:41:56.838Z,92.60
2017-11-19T04:44:24.457Z,93.00
2017-11-19T04:46:52.035Z,92.80
2017-11-19T04:49:19.611Z,92.80
2017-11-19T04:51:47.375Z,92.50
2017-11-19T04:54:15.625Z,92.90
2017-11-19T04:56:44.741Z,92.80
2017-11-19T04:59:15.487Z,92.80
2017-11-19T05:01:44.376Z,92.80
2017-11-19T05:04:11.932Z,92.90
2017-11-19T05:06:40.342Z,93.00
2017-11-19T05:09:09.475Z,92.50
2017-11-19T05:11:37.951Z,93.10
2017-11-19T05:14:08.796Z,92.80
2017-11-19T05:16:37.297Z,92.90
2017-11-19T05:19:06.475Z,92.90
2017-11-19T05:21:35.911Z,92.70
2017-11-19T05:24:03.459Z,92.30
2017-11-19T05:26:31.117Z,92.70
2017-11-19T05:28:58.693Z,93.00
2017-11-19T05:31:26.287Z,92.90
2017-11-19T05:33:54.512Z,92.90
2017-11-19T05:36:22.135Z,92.80
2017-11-19T05:38:49.684Z,93.20
2017-11-19T05:41:17.343Z,93.20
2017-11-19T05:43:45.061Z,92.60
2017-11-19T05:46:13.781Z,92.60
2017-11-19T05:48:42.260Z,92.80
2017-11-19T05:51:10.457Z,92.20
2017-11-19T05:53:38.033Z,92.10
2017-11-19T05:56:05.715Z,92.50
2017-11-19T05:58:34.107Z,92.20
2017-11-19T06:01:01.717Z,92.70
2017-11-19T06:03:30.839Z,92.40
2017-11-19T06:05:59.460Z,92.00
2017-11-19T06:08:27.000Z,91.90
2017-11-19T06:10:55.638Z,91.90
2017-11-19T06:13:23.359Z,91.90
2017-11-19T06:15:51.013Z,92.00
2017-11-19T06:18:19.465Z,91.70
2017-11-19T06:20:47.196Z,91.90
2017-11-19T06:23:15.667Z,91.50
2017-11-19T06:25:44.066Z,91.50
2017-11-19T06:28:11.822Z,91.80
2017-11-19T06:30:39.642Z,91.50
2017-11-19T06:33:07.744Z,91.90
2017-11-19T06:35:35.484Z,91.70
2017-11-19T06:38:03.086Z,91.20
2017-11-19T06:40:30.672Z,91.40
2017-11-19T06:42:59.125Z,91.60
2017-11-19T06:45:27.660Z,91.40
2017-11-19T06:47:55.414Z,91.60
2017-11-19T06:50:23.065Z,91.50
2017-11-19T06:52:51.549Z,91.50
2017-11-19T06:55:19.230Z,91.70
2017-11-19T06:57:47.103Z,91.60
2017-11-19T07:00:15.364Z,91.50
2017-11-19T07:02:43.760Z,90.80
2017-11-19T07:05:11.374Z,90.70
2017-11-19T07:07:40.086Z,91.30
2017-11-19T07:10:08.490Z,91.20
2017-11-19T07:12:36.141Z,91.10
2017-11-19T07:15:05.593Z,91.70
2017-11-19T07:17:34.043Z,91.80
2017-11-19T07:20:01.597Z,91.60
2017-11-19T07:22:29.256Z,91.50
2017-11-19T07:24:56.925Z,91.40
2017-11-19T07:27:24.880Z,91.60
2017-11-19T07:29:52.555Z,91.50
2017-11-19T07:32:20.977Z,91.10
2017-11-19T07:34:49.686Z,91.00
2017-11-19T07:37:17.289Z,90.90
2017-11-19T07:39:44.989Z,91.00
2017-11-19T07:42:12.667Z,91.40
2017-11-19T07:44:40.260Z,90.90
2017-11-19T07:47:08.669Z,90.80
2017-11-19T07:49:36.284Z,90.70
2017-11-19T07:52:03.947Z,90.70
2017-11-19T07:54:35.039Z,90.80
2017-11-19T07:57:03.555Z,91.40
2017-11-19T07:59:32.941Z,91.10
2017-11-19T08:02:03.245Z,91.10
2017-11-19T08:04:31.709Z,91.50
2017-11-19T08:06:59.369Z,91.00
2017-11-19T08:09:27.801Z,91.30
2017-11-19T08:11:56.153Z,91.90
2017-11-19T08:14:24.562Z,91.90
2017-11-19T08:16:54.688Z,92.10
2017-11-19T08:19:23.113Z,92.10
2017-11-19T08:21:50.837Z,91.70
2017-11-19T08:24:19.813Z,91.80
2017-11-19T08:26:49.517Z,92.20
2017-11-19T08:29:17.901Z,91.90
2017-11-19T08:31:45.707Z,91.90
2017-11-19T08:34:14.611Z,91.50
2017-11-19T08:36:42.269Z,91.60
2017-11-19T08:39:10.435Z,91.90
2017-11-19T08:41:38.960Z,92.20
2017-11-19T08:44:07.371Z,92.10
2017-11-19T08:46:35.880Z,92.10
2017-11-19T08:49:03.445Z,91.60
2017-11-19T08:51:31.994Z,91.40
2017-11-19T08:53:59.592Z,91.20
2017-11-19T08:56:28.116Z,91.80
2017-11-19T08:58:55.721Z,91.50
2017-11-19T09:01:23.293Z,91.60
2017-11-19T09:03:50.936Z,91.50
2017-11-19T09:06:18.604Z,91.30
2017-11-19T09:08:47.253Z,91.50
2017-11-19T09:11:15.012Z,90.90
2017-11-19T09:13:42.680Z,90.80
2017-11-19T09:16:10.335Z,91.10
2017-11-19T09:18:37.861Z,90.80
2017-11-19T09:21:05.456Z,91.00
2017-11-19T09:23:58.089Z,90.90
2017-11-19T09:26:27.869Z,90.80
2017-11-19T09:28:56.312Z,91.40
2017-11-19T09:31:26.729Z,92.90
2017-11-19T09:33:58.617Z,91.10
2017-11-19T09:36:27.172Z,90.40
2017-11-19T09:38:55.250Z,90.30
2017-11-19T09:41:22.833Z,90.70
2017-11-19T09:43:50.426Z,90.50
2017-11-19T09:46:18.024Z,90.20
2017-11-19T09:48:46.417Z,90.70
2017-11-19T09:51:13.997Z,90.80
2017-11-19T09:53:41.553Z,90.80
2017-11-19T09:56:10.055Z,90.30
2017-11-19T09:58:37.633Z,90.60
2017-11-19T10:01:05.839Z,90.70
2017-11-19T10:03:34.567Z,90.20
2017-11-19T10:06:02.256Z,90.00
2017-11-19T10:08:30.814Z,89.70
2017-11-19T10:10:59.292Z,89.70
2017-11-19T10:13:27.018Z,89.70
2017-11-19T10:15:56.312Z,88.70
2017-11-19T10:18:24.497Z,88.10
2017-11-19T10:20:53.825Z,86.80
2017-11-19T10:23:24.358Z,87.30
2017-11-19T10:25:53.201Z,88.00
2017-11-19T10:28:21.772Z,86.90
2017-11-19T10:30:50.341Z,86.90
2017-11-19T10:33:24.610Z,87.70
2017-11-19T10:35:56.367Z,85.10
2017-11-19T10:38:25.005Z,86.20
2017-11-19T10:40:56.169Z,86.50
2017-11-19T10:43:25.085Z,86.80
2017-11-19T10:45:54.243Z,86.70
2017-11-19T10:48:23.639Z,87.90
2017-11-19T10:50:54.009Z,88.00
2017-11-19T10:53:27.326Z,88.10
2017-11-19T10:55:58.470Z,89.40
2017-11-19T10:58:29.051Z,88.50
2017-11-19T11:00:57.662Z,89.70
2017-11-19T11:03:30.097Z,89.40
2017-11-19T11:05:59.509Z,90.30
2017-11-19T11:08:28.410Z,89.70
2017-11-19T11:10:57.139Z,90.00
2017-11-19T11:13:25.581Z,89.70
2017-11-19T11:15:54.068Z,89.70
2017-11-19T11:18:22.512Z,90.00
2017-11-19T11:20:50.266Z,90.00
2017-11-19T11:23:18.207Z,86.50
2017-11-19T11:25:45.921Z,85.50
2017-11-19T11:28:15.913Z,85.70
2017-11-19T11:30:43.992Z,88.30
2017-11-19T11:33:11.717Z,91.10
2017-11-19T11:35:40.465Z,91.30
2017-11-19T11:38:08.196Z,91.50
2017-11-19T11:40:36.346Z,90.00
2017-11-19T11:43:03.958Z,85.60
2017-11-19T11:45:31.718Z,89.80
2017-11-19T11:47:59.417Z,86.50
2017-11-19T11:50:28.416Z,85.10
2017-11-19T11:52:56.112Z,83.30
2017-11-19T11:55:24.698Z,84.80
2017-11-19T11:57:52.437Z,90.20
2017-11-19T12:00:20.127Z,87.60
2017-11-19T12:02:47.754Z,91.20
2017-11-19T12:05:15.480Z,91.20
2017-11-19T12:07:43.276Z,91.50
2017-11-19T12:10:11.736Z,91.80
2017-11-19T12:12:40.135Z,92.20
2017-11-19T12:15:08.516Z,92.30
2017-11-19T12:17:36.960Z,92.30
2017-11-19T12:20:06.332Z,92.30
2017-11-19T12:22:35.561Z,92.00
2017-11-19T12:25:06.267Z,91.80
2017-11-19T12:27:33.888Z,91.80
2017-11-19T12:30:02.317Z,91.40
2017-11-19T12:32:29.925Z,91.20
2017-11-19T12:34:58.287Z,91.10
2017-11-19T12:37:25.930Z,90.20
2017-11-19T12:39:54.495Z,88.90
2017-11-19T12:42:23.206Z,87.40
2017-11-19T12:44:51.115Z,87.40
2017-11-19T12:47:19.673Z,86.60
2017-11-19T12:49:48.908Z,83.40
2017-11-19T12:52:17.684Z,83.40
2017-11-19T12:54:46.266Z,86.60
2017-11-19T12:57:16.751Z,87.30
2017-11-19T12:59:44.654Z,87.30
2017-11-19T13:02:14.301Z,86.50
2017-11-19T13:04:41.972Z,86.60
2017-11-19T13:07:09.541Z,87.00
2017-11-19T13:09:37.931Z,87.10
2017-11-19T13:12:06.498Z,87.20
2017-11-19T13:14:34.177Z,84.80
2017-11-19T13:17:01.710Z,84.40
2017-11-19T13:19:30.084Z,85.40
2017-11-19T13:21:59.290Z,85.30
2017-11-19T13:24:28.087Z,85.60
2017-11-19T13:26:58.799Z,87.00
2017-11-19T13:29:27.697Z,85.70
2017-11-19T13:31:56.277Z,85.10
2017-11-19T13:34:24.842Z,74.60
2017-11-19T13:36:52.539Z,74.60
2017-11-19T13:39:21.722Z,81.00
2017-11-19T13:41:50.756Z,80.90
2017-11-19T13:44:20.839Z,85.60
2017-11-19T13:46:48.432Z,85.60
2017-11-19T13:49:16.438Z,86.30
2017-11-19T13:51:44.848Z,86.80
2017-11-19T13:54:13.250Z,87.20
2017-11-19T13:56:41.329Z,87.10
2017-11-19T13:59:09.706Z,87.90
2017-11-19T14:01:37.299Z,88.50
2017-11-19T14:04:06.412Z,90.40
2017-11-19T14:06:34.876Z,90.40
2017-11-19T14:09:02.489Z,90.80
2017-11-19T14:11:30.025Z,90.90
2017-11-19T14:13:57.624Z,91.10
2017-11-19T14:16:25.951Z,92.00
2017-11-19T14:18:53.543Z,92.00
2017-11-19T14:21:22.341Z,92.10
2017-11-19T14:23:51.732Z,92.00
2017-11-19T14:26:19.382Z,92.10
2017-11-19T14:28:47.057Z,92.10
2017-11-19T14:31:14.676Z,92.20
2017-11-19T14:33:43.178Z,92.30
2017-11-19T14:36:10.916Z,92.60
2017-11-19T14:38:39.437Z,92.70
2017-11-19T14:41:07.100Z,92.60
2017-11-19T14:43:35.490Z,92.60
2017-11-19T14:46:03.028Z,93.00
2017-11-19T14:48:31.416Z,93.00
2017-11-19T14:50:59.888Z,93.00
2017-11-19T14:53:27.531Z,93.20
2017-11-19T14:55:55.139Z,93.20
2017-11-19T14:58:22.794Z,93.10
2017-11-19T15:00:50.466Z,93.20
2017-11-19T15:03:18.074Z,93.30
2017-11-19T15:05:45.801Z,93.30
2017-11-19T15:08:15.365Z,93.40
2017-11-19T15:10:44.217Z,93.20
2017-11-19T15:13:13.696Z,93.30
2017-11-19T15:15:42.313Z,93.40
2017-11-19T15:18:10.708Z,93.70
2017-11-19T15:20:38.408Z,93.70
2017-11-19T15:23:06.031Z,93.70
2017-11-19T15:25:33.718Z,94.00
2017-11-19T15:28:02.185Z,94.00
2017-11-19T15:30:29.853Z,94.00
2017-11-19T15:32:57.449Z,93.90
2017-11-19T15:35:25.961Z,93.40
2017-11-19T15:37:54.353Z,94.00
2017-11-19T15:40:23.603Z,93.70
2017-11-19T15:42:51.315Z,93.70
2017-11-19T15:45:20.594Z,93.80
2017-11-19T15:47:50.023Z,94.00
2017-11-19T15:50:18.618Z,94.20
2017-11-19T15:52:46.394Z,94.20
2017-11-19T15:55:14.016Z,94.20
2017-11-19T15:57:42.418Z,94.40
2017-11-19T16:00:10.178Z,94.40
2017-11-19T16:02:38.853Z,94.20
2017-11-19T16:05:06.505Z,94.40
2017-11-19T16:07:34.128Z,94.30
2017-11-19T16:10:01.780Z,94.40
2017-11-19T16:12:30.128Z,94.40
2017-11-19T16:14:58.489Z,94.40
2017-11-19T16:17:26.188Z,94.30
2017-11-19T16:19:56.609Z,94.30
2017-11-19T16:22:24.197Z,94.30
2017-11-19T16:24:51.947Z,94.40
2017-11-19T16:27:21.175Z,94.40
2017-11-19T16:29:48.796Z,94.20
2017-11-19T16:32:16.428Z,94.20
2017-11-19T16:34:45.520Z,93.80
2017-11-19T16:37:13.308Z,93.90
2017-11-19T16:39:48.299Z,93.70
2017-11-19T16:42:19.441Z,93.60
2017-11-19T16:44:53.489Z,93.80
2017-11-19T16:47:21.780Z,93.90
2017-11-19T16:49:49.448Z,94.00
2017-11-19T16:52:20.174Z,93.70
2017-11-19T16:54:49.066Z,93.80
2017-11-19T16:57:18.477Z,93.60
2017-11-19T16:59:47.498Z,93.80
2017-11-19T17:02:15.342Z,93.80
2017-11-19T17:04:44.580Z,93.90
2017-11-19T17:07:13.630Z,94.10
2017-11-19T17:09:41.313Z,93.90
2017-11-19T17:12:08.856Z,93.80
2017-11-19T17:14:36.594Z,93.90
2017-11-19T17:17:04.993Z,93.70
2017-11-19T17:19:32.574Z,93.90
2017-11-19T17:22:00.121Z,93.70
2017-11-19T17:24:28.250Z,93.70
2017-11-19T17:26:57.157Z,94.00
2017-11-19T17:29:25.508Z,94.10
2017-11-19T17:31:53.064Z,94.00
2017-11-19T17:34:20.661Z,94.20
2017-11-19T17:36:51.054Z,94.10
2017-11-19T17:39:19.580Z,94.10
2017-11-19T17:41:47.147Z,94.20
2017-11-19T17:44:14.720Z,94.10
2017-11-19T17:46:42.299Z,94.10
2017-11-19T17:49:10.673Z,94.00
2017-11-19T17:51:38.919Z,94.40
2017-11-19T17:54:07.260Z,94.80
2017-11-19T17:56:35.430Z,94.40
2017-11-19T17:59:03.886Z,94.30
2017-11-19T18:01:31.748Z,94.20
2017-11-19T18:04:00.248Z,94.50
2017-11-19T18:06:27.870Z,94.30
2017-11-19T18:08:56.696Z,94.10
2017-11-19T18:11:25.279Z,94.20
2017-11-19T18:13:52.884Z,94.10
2017-11-19T18:16:21.053Z,94.20
2017-11-19T18:18:49.975Z,94.00
2017-11-19T18:21:19.730Z,94.30
2017-11-19T18:23:47.661Z,94.30
2017-11-19T18:26:16.390Z,94.60
2017-11-19T18:28:44.025Z,94.30
2017-11-19T18:31:12.662Z,94.50
2017-11-19T18:33:41.032Z,94.50
2017-11-19T18:36:09.263Z,94.50
2017-11-19T18:38:37.009Z,94.50
2017-11-19T18:41:04.860Z,94.50
2017-11-19T18:43:34.446Z,94.70
2017-11-19T18:46:02.769Z,94.60
2017-11-19T18:48:30.355Z,94.60
2017-11-19T18:50:58.942Z,94.60
2017-11-19T18:53:26.542Z,94.70
2017-11-19T18:55:54.165Z,95.00
2017-11-19T18:58:22.515Z,95.00
2017-11-19T19:00:50.116Z,95.00
2017-11-19T19:03:17.837Z,95.10
2017-11-19T19:05:46.143Z,95.20
2017-11-19T19:08:14.536Z,95.10
2017-11-19T19:10:42.701Z,95.10
2017-11-19T19:13:10.272Z,95.00
2017-11-19T19:15:39.014Z,94.80
2017-11-19T19:18:08.935Z,94.50
2017-11-19T19:20:37.349Z,94.50
2017-11-19T19:23:04.966Z,94.70
2017-11-19T19:25:32.495Z,95.00
2017-11-19T19:28:00.081Z,95.00
2017-11-19T19:30:28.392Z,94.80
2017-11-19T19:32:56.776Z,94.80
2017-11-19T19:35:24.317Z,94.80
2017-11-19T19:37:51.864Z,95.10
2017-11-19T19:40:19.450Z,95.00
2017-11-19T19:42:47.005Z,94.60
2017-11-19T19:45:15.769Z,94.80
2017-11-19T19:47:44.119Z,94.40
2017-11-19T19:50:11.662Z,94.30
2017-11-19T19:52:41.105Z,94.50
2017-11-19T19:55:08.645Z,94.70
2017-11-19T19:57:36.756Z,94.20
2017-11-19T20:00:05.757Z,94.40
2017-11-19T20:02:33.893Z,94.70
2017-11-19T20:05:01.471Z,94.50
2017-11-19T20:07:29.849Z,94.70
2017-11-19T20:09:59.115Z,94.70
2017-11-19T20:12:26.643Z,94.80
2017-11-19T20:14:55.003Z,95.00
2017-11-19T20:17:22.536Z,95.00
2017-11-19T20:19:51.841Z,95.30
2017-11-19T20:22:19.392Z,95.20
2017-11-19T20:24:47.771Z,94.80
2017-11-19T20:27:16.264Z,95.00
2017-11-19T20:29:44.611Z,94.90
2017-11-19T20:32:12.148Z,94.90
2017-11-19T20:34:40.519Z,95.00
2017-11-19T20:37:08.065Z,94.90
2017-11-19T20:39:35.635Z,94.90
2017-11-19T20:42:03.203Z,94.70
2017-11-19T20:44:30.770Z,94.70
2017-11-19T20:47:00.123Z,94.70
2017-11-19T20:49:27.723Z,94.60
2017-11-19T20:51:56.675Z,94.20
2017-11-19T20:54:26.257Z,94.20
2017-11-19T20:56:53.850Z,94.40
2017-11-19T20:59:21.422Z,94.30
2017-11-19T21:01:49.080Z,94.20
2017-11-19T21:04:16.785Z,94.50
2017-11-19T21:06:44.324Z,94.40
2017-11-19T21:09:12.735Z,94.30
2017-11-19T21:11:40.272Z,94.30
2017-11-19T21:14:07.849Z,94.60
2017-11-19T21:16:36.275Z,94.50
2017-11-19T21:19:03.857Z,94.50
2017-11-19T21:21:31.388Z,94.30
2017-11-19T21:23:59.727Z,94.30
2017-11-19T21:26:27.284Z,94.30
2017-11-19T21:28:54.858Z,94.20
2017-11-19T21:31:23.342Z,94.20
2017-11-19T21:33:50.929Z,94.50
2017-11-19T21:36:20.350Z,94.50
2017-11-19T21:38:47.979Z,94.70
2017-11-19T21:41:17.481Z,94.70
2017-11-19T21:43:45.149Z,94.60
2017-11-19T21:46:12.688Z,95.00
2017-11-19T21:48:41.235Z,94.90
2017-11-19T21:51:09.963Z,94.90
2017-11-19T21:53:37.532Z,94.70
2017-11-19T21:56:05.857Z,94.80
2017-11-19T21:58:34.572Z,94.80
2017-11-19T22:01:02.799Z,94.60
2017-11-19T22:03:31.136Z,94.70
2017-11-19T22:05:59.225Z,94.50
2017-11-19T22:08:26.958Z,94.50
2017-11-19T22:10:55.266Z,95.00
2017-11-19T22:13:23.671Z,95.00
2017-11-19T22:15:51.219Z,95.00
2017-11-19T22:18:19.681Z,95.00
2017-11-19T22:20:47.383Z,95.00
2017-11-19T22:23:15.716Z,94.90
2017-11-19T22:25:43.237Z,94.90
2017-11-19T22:28:11.574Z,95.00
2017-11-19T22:30:39.133Z,95.00
2017-11-19T22:33:06.710Z,95.10
2017-11-19T22:35:35.230Z,95.00
2017-11-19T22:38:02.810Z,95.00
2017-11-19T22:40:32.116Z,94.90
2017-11-19T22:42:59.935Z,94.90
2017-11-19T22:45:27.585Z,95.10
2017-11-19T22:47:55.226Z,95.20
2017-11-19T22:50:22.780Z,95.50
2017-11-19T22:52:51.165Z,95.20
2017-11-19T22:55:20.921Z,95.30
2017-11-19T22:57:49.461Z,95.30
2017-11-19T23:00:17.002Z,95.30
2017-11-19T23:02:44.570Z,95.20
2017-11-19T23:05:12.117Z,95.50
2017-11-19T23:07:39.688Z,95.30
2017-11-19T23:10:09.179Z,95.10
2017-11-19T23:12:36.795Z,95.00
2017-11-19T23:15:05.241Z,95.00
2017-11-19T23:17:32.819Z,94.90
2017-11-19T23:20:00.436Z,95.20
2017-11-19T23:22:27.995Z,95.10
2017-11-19T23:24:56.306Z,95.00
2017-11-19T23:27:23.896Z,95.00
2017-11-19T23:29:51.441Z,95.10
2017-11-19T23:32:19.041Z,94.90
2017-11-19T23:34:46.597Z,94.60
2017-11-19T23:37:15.134Z,94.90
2017-11-19T23:39:43.108Z,94.70
2017-11-19T23:42:13.466Z,94.70
2017-11-19T23:44:40.990Z,94.60
2017-11-19T23:47:08.568Z,94.80
2017-11-19T23:49:36.091Z,94.70
2017-11-19T23:52:03.652Z,94.50
2017-11-19T23:54:31.187Z,94.80
2017-11-19T23:56:59.659Z,94.60
2017-11-19T23:59:27.188Z,94.80
